createdAt,value
2022-09-09T00:00:23.669Z,77.67
2022-09-09T00:02:57.298Z,77.71
2022-09-09T00:05:32.002Z,77.62
2022-09-09T00:08:02.457Z,77.89
2022-09-09T00:10:32.483Z,78.09
2022-09-09T00:13:07.534Z,78.27
2022-09-09T00:15:41.559Z,77.93
2022-09-09T00:18:20.785Z,78.46
2022-09-09T00:20:56.979Z,77.65
2022-09-09T00:23:27.889Z,78.57
2022-09-09T00:26:02.680Z,78.45
2022-09-09T00:28:33.420Z,78.54
2022-09-09T00:31:03.553Z,78.40
2022-09-09T00:33:32.957Z,78.75
2022-09-09T00:36:04.180Z,78.43
2022-09-09T00:38:38.127Z,78.94
2022-09-09T00:41:12.809Z,78.73
2022-09-09T00:43:42.919Z,79.33
2022-09-09T00:46:25.019Z,78.93
2022-09-09T00:49:02.579Z,79.27
2022-09-09T00:51:40.728Z,78.67
2022-09-09T00:54:20.288Z,79.50
2022-09-09T00:56:55.077Z,79.30
2022-09-09T00:59:29.515Z,79.05
2022-09-09T01:01:58.445Z,78.93
2022-09-09T01:04:32.316Z,78.71
2022-09-09T01:07:09.332Z,78.89
2022-09-09T01:09:47.595Z,78.93
2022-09-09T01:12:18.919Z,79.15
2022-09-09T01:14:55.287Z,79.25
2022-09-09T01:17:27.158Z,79.27
2022-09-09T01:20:06.987Z,79.39
2022-09-09T01:22:50.445Z,79.04
2022-09-09T01:25:51.975Z,79.21
2022-09-09T01:28:29.767Z,79.45
2022-09-09T01:31:05.492Z,79.72
2022-09-09T01:33:41.003Z,80.74
2022-09-09T01:36:12.865Z,80.13
2022-09-09T01:38:50.049Z,80.59
2022-09-09T01:41:19.882Z,80.88
2022-09-09T01:44:09.024Z,80.25
2022-09-09T01:46:39.672Z,80.53
2022-09-09T01:49:13.919Z,81.17
2022-09-09T01:51:43.616Z,80.60
2022-09-09T01:54:15.248Z,80.86
2022-09-09T01:56:50.087Z,81.22
2022-09-09T01:59:30.627Z,81.57
2022-09-09T02:02:11.510Z,80.67
2022-09-09T02:04:46.770Z,81.43
2022-09-09T02:07:33.339Z,80.91
2022-09-09T02:10:06.904Z,81.49
2022-09-09T02:12:35.513Z,80.60
2022-09-09T02:15:12.060Z,80.66
2022-09-09T02:17:49.459Z,80.31
2022-09-09T02:20:21.305Z,80.11
2022-09-09T02:22:56.278Z,80.59
2022-09-09T02:25:29.206Z,81.38
2022-09-09T02:28:02.302Z,80.99
2022-09-09T02:30:35.395Z,81.24
2022-09-09T02:33:07.565Z,81.54
2022-09-09T02:35:52.805Z,82.06
2022-09-09T02:38:24.669Z,82.36
2022-09-09T02:41:03.061Z,82.36
2022-09-09T02:43:34.311Z,82.02
2022-09-09T02:46:11.503Z,82.73
2022-09-09T02:48:48.084Z,82.89
2022-09-09T02:51:22.599Z,83.12
2022-09-09T02:53:57.093Z,82.46
2022-09-09T02:56:29.636Z,82.77
2022-09-09T02:58:59.873Z,82.99
2022-09-09T03:01:30.029Z,82.93
2022-09-09T03:03:58.690Z,83.59
2022-09-09T03:06:28.456Z,83.37
2022-09-09T03:09:05.769Z,83.71
2022-09-09T03:11:34.479Z,83.18
2022-09-09T03:14:03.117Z,83.78
2022-09-09T03:16:35.605Z,83.42
2022-09-09T03:19:04.365Z,83.89
2022-09-09T03:21:33.370Z,83.98
2022-09-09T03:24:04.431Z,84.50
2022-09-09T03:26:33.596Z,84.88
2022-09-09T03:29:02.737Z,84.44
2022-09-09T03:31:32.606Z,84.31
2022-09-09T03:34:03.187Z,85.03
2022-09-09T03:36:35.587Z,85.17
2022-09-09T03:39:05.216Z,84.98
2022-09-09T03:41:33.961Z,84.55
2022-09-09T03:44:04.543Z,84.54
2022-09-09T03:46:39.424Z,84.58
2022-09-09T03:49:10.266Z,84.11
2022-09-09T03:51:39.485Z,84.08
2022-09-09T03:54:11.237Z,83.41
2022-09-09T03:56:42.503Z,83.10
2022-09-09T03:59:13.264Z,83.30
2022-09-09T04:01:41.997Z,83.40
2022-09-09T04:04:13.321Z,82.68
2022-09-09T04:06:42.076Z,83.37
2022-09-09T04:09:10.784Z,83.21
2022-09-09T04:11:39.507Z,82.97
2022-09-09T04:14:08.357Z,82.89
2022-09-09T04:16:38.570Z,82.91
2022-09-09T04:19:09.029Z,82.43
2022-09-09T04:21:40.816Z,82.70
2022-09-09T04:24:10.096Z,81.94
2022-09-09T04:26:40.834Z,82.30
2022-09-09T04:29:10.611Z,82.49
2022-09-09T04:31:43.202Z,81.34
2022-09-09T04:34:12.123Z,82.01
2022-09-09T04:36:42.651Z,81.45
2022-09-09T04:39:14.282Z,81.26
2022-09-09T04:41:42.996Z,81.09
2022-09-09T04:44:12.793Z,80.22
2022-09-09T04:46:42.486Z,79.57
2022-09-09T04:49:15.210Z,79.24
2022-09-09T04:51:48.106Z,79.18
2022-09-09T04:54:16.695Z,78.82
2022-09-09T04:56:47.356Z,78.56
2022-09-09T04:59:16.115Z,78.66
2022-09-09T05:01:49.377Z,78.66
2022-09-09T05:04:18.042Z,78.61
2022-09-09T05:06:48.184Z,78.81
2022-09-09T05:09:16.961Z,78.38
2022-09-09T05:11:47.410Z,77.80
2022-09-09T05:14:26.063Z,77.87
2022-09-09T05:16:54.626Z,78.11
2022-09-09T05:19:24.856Z,77.89
2022-09-09T05:21:56.295Z,77.63
2022-09-09T05:24:34.332Z,77.27
2022-09-09T05:27:09.516Z,77.17
2022-09-09T05:29:38.506Z,76.01
2022-09-09T05:32:13.528Z,74.32
2022-09-09T05:34:45.034Z,75.15
2022-09-09T05:37:15.546Z,75.83
2022-09-09T05:39:45.853Z,75.10
2022-09-09T05:42:14.611Z,75.80
2022-09-09T05:44:44.149Z,74.58
2022-09-09T05:47:12.836Z,74.73
2022-09-09T05:49:41.543Z,74.67
2022-09-09T05:52:10.948Z,74.64
2022-09-09T05:54:41.330Z,73.82
2022-09-09T05:57:10.936Z,72.39
2022-09-09T05:59:40.182Z,70.19
2022-09-09T06:02:09.907Z,70.78
2022-09-09T06:04:39.870Z,70.00
2022-09-09T06:07:08.446Z,69.49
2022-09-09T06:09:37.660Z,69.08
2022-09-09T06:12:08.848Z,68.42
2022-09-09T06:14:40.339Z,67.85
2022-09-09T06:17:11.856Z,67.60
2022-09-09T06:19:41.631Z,67.32
2022-09-09T06:22:13.766Z,66.96
2022-09-09T06:24:43.330Z,66.37
2022-09-09T06:27:14.902Z,66.58
2022-09-09T06:29:44.193Z,65.43
2022-09-09T06:32:12.762Z,65.43
2022-09-09T06:34:41.316Z,64.05
2022-09-09T06:37:09.934Z,64.04
2022-09-09T06:39:43.540Z,64.24
2022-09-09T06:42:14.046Z,64.09
2022-09-09T06:44:45.730Z,62.99
2022-09-09T06:47:22.205Z,62.36
2022-09-09T06:49:51.107Z,61.89
2022-09-09T06:52:20.548Z,62.29
2022-09-09T06:54:49.555Z,62.61
2022-09-09T06:57:36.473Z,61.20
2022-09-09T07:00:07.979Z,61.43
2022-09-09T07:02:40.141Z,60.05
2022-09-09T07:05:10.427Z,60.77
2022-09-09T07:07:40.069Z,61.66
2022-09-09T07:10:10.519Z,61.31
2022-09-09T07:12:41.076Z,62.00
2022-09-09T07:15:12.357Z,61.79
2022-09-09T07:17:45.151Z,61.57
2022-09-09T07:20:15.754Z,60.89
2022-09-09T07:22:44.224Z,60.41
2022-09-09T07:25:13.398Z,60.03
2022-09-09T07:27:43.403Z,60.12
2022-09-09T07:30:19.290Z,59.57
2022-09-09T07:32:50.428Z,57.98
2022-09-09T07:35:19.489Z,58.31
2022-09-09T07:37:51.000Z,58.26
2022-09-09T07:40:22.978Z,57.64
2022-09-09T07:42:54.747Z,57.81
2022-09-09T07:45:23.546Z,57.41
2022-09-09T07:47:53.867Z,57.94
2022-09-09T07:50:23.045Z,57.46
2022-09-09T07:52:53.053Z,57.63
2022-09-09T07:55:22.673Z,56.75
2022-09-09T07:57:51.359Z,55.95
2022-09-09T08:00:23.246Z,54.54
2022-09-09T08:02:56.305Z,54.51
2022-09-09T08:05:25.049Z,54.14
2022-09-09T08:07:53.504Z,54.05
2022-09-09T08:10:22.228Z,54.10
2022-09-09T08:13:08.192Z,53.49
2022-09-09T08:15:43.412Z,52.10
2022-09-09T08:18:12.249Z,52.48
2022-09-09T08:20:41.002Z,53.29
2022-09-09T08:23:09.586Z,53.99
2022-09-09T08:25:38.014Z,53.54
2022-09-09T08:28:06.484Z,53.35
2022-09-09T08:30:35.145Z,54.46
2022-09-09T08:33:04.983Z,53.23
2022-09-09T08:35:33.778Z,51.75
2022-09-09T08:38:07.656Z,51.83
2022-09-09T08:40:42.620Z,51.36
2022-09-09T08:43:11.399Z,52.35
2022-09-09T08:45:50.556Z,51.99
2022-09-09T08:48:36.402Z,50.80
2022-09-09T08:51:09.079Z,51.16
2022-09-09T08:53:43.789Z,51.94
2022-09-09T08:56:16.397Z,52.72
2022-09-09T08:58:51.275Z,52.49
2022-09-09T09:01:57.871Z,50.59
2022-09-09T09:05:00.415Z,50.25
2022-09-09T09:07:43.238Z,50.48
2022-09-09T09:10:40.547Z,50.67
2022-09-09T09:13:15.991Z,50.84
2022-09-09T09:15:44.922Z,50.65
2022-09-09T09:18:15.252Z,51.50
2022-09-09T09:20:53.647Z,51.59
2022-09-09T09:23:25.357Z,51.89
2022-09-09T09:26:01.974Z,50.88
2022-09-09T09:28:32.862Z,49.98
2022-09-09T09:31:09.838Z,49.50
2022-09-09T09:33:48.202Z,49.21
2022-09-09T09:36:21.317Z,48.41
2022-09-09T09:41:46.801Z,49.96
2022-09-09T09:44:28.108Z,50.04
2022-09-09T09:47:08.618Z,50.07
2022-09-09T09:49:37.936Z,48.94
2022-09-09T09:52:14.812Z,50.30
2022-09-09T09:54:44.359Z,49.27
2022-09-09T09:57:14.583Z,48.62
2022-09-09T09:59:45.827Z,48.29
2022-09-09T10:02:28.373Z,46.34
2022-09-09T10:05:07.320Z,46.29
2022-09-09T10:07:39.957Z,47.47
2022-09-09T10:10:13.759Z,48.26
2022-09-09T10:12:50.174Z,50.82
2022-09-09T10:15:32.948Z,49.89
2022-09-09T10:18:10.347Z,48.99
2022-09-09T10:20:45.597Z,48.25
2022-09-09T10:23:28.825Z,46.65
2022-09-09T10:26:10.003Z,46.99
2022-09-09T10:29:06.421Z,46.04
2022-09-09T10:31:42.395Z,46.23
2022-09-09T10:34:17.555Z,46.87
2022-09-09T10:36:50.441Z,47.12
2022-09-09T10:39:31.400Z,47.37
2022-09-09T10:42:06.299Z,47.32
2022-09-09T10:44:58.250Z,46.80
2022-09-09T10:47:46.096Z,46.55
2022-09-09T10:50:57.122Z,48.23
2022-09-09T10:53:24.849Z,48.81
2022-09-09T10:55:58.943Z,48.17
2022-09-09T10:58:31.075Z,48.30
2022-09-09T11:01:03.409Z,48.40
2022-09-09T11:03:32.872Z,48.97
2022-09-09T11:06:03.843Z,47.50
2022-09-09T11:08:34.663Z,46.73
2022-09-09T11:11:06.449Z,47.45
2022-09-09T11:13:45.421Z,47.30
2022-09-09T11:16:22.137Z,47.72
2022-09-09T11:18:50.656Z,47.28
2022-09-09T11:21:24.724Z,46.48
2022-09-09T11:23:56.062Z,46.06
2022-09-09T11:26:33.174Z,46.99
2022-09-09T11:29:24.812Z,47.22
2022-09-09T11:32:04.310Z,47.49
2022-09-09T11:34:41.678Z,47.55
2022-09-09T11:37:24.280Z,49.18
2022-09-09T11:40:18.349Z,50.72
2022-09-09T11:42:50.377Z,51.57
2022-09-09T11:45:27.227Z,51.23
2022-09-09T11:48:00.201Z,51.99
2022-09-09T11:50:34.372Z,52.00
2022-09-09T11:53:24.043Z,50.37
2022-09-09T11:56:12.251Z,50.37
2022-09-09T11:58:44.835Z,50.46
2022-09-09T12:01:37.035Z,48.32
2022-09-09T12:04:35.634Z,47.70
2022-09-09T12:07:07.001Z,46.13
2022-09-09T12:09:47.046Z,46.96
2022-09-09T12:12:28.683Z,47.01
2022-09-09T12:15:01.763Z,46.48
2022-09-09T12:17:34.434Z,46.02
2022-09-09T12:20:08.333Z,46.34
2022-09-09T12:22:43.199Z,46.04
2022-09-09T12:25:23.388Z,45.14
2022-09-09T12:28:03.318Z,45.51
2022-09-09T12:30:37.521Z,45.89
2022-09-09T12:33:12.784Z,46.11
2022-09-09T12:35:42.316Z,45.99
2022-09-09T12:38:15.731Z,45.66
2022-09-09T12:40:44.257Z,46.16
2022-09-09T12:43:22.329Z,45.80
2022-09-09T12:45:57.810Z,46.40
2022-09-09T12:48:40.230Z,46.21
2022-09-09T12:51:18.596Z,46.41
2022-09-09T12:53:48.456Z,46.84
2022-09-09T12:56:22.321Z,46.91
2022-09-09T12:58:53.677Z,46.80
2022-09-09T13:01:26.105Z,45.39
2022-09-09T13:03:55.265Z,44.37
2022-09-09T13:06:28.892Z,44.63
2022-09-09T13:08:59.884Z,45.49
2022-09-09T13:11:32.483Z,45.40
2022-09-09T13:14:03.988Z,45.97
2022-09-09T13:16:39.100Z,46.01
2022-09-09T13:19:15.622Z,46.36
2022-09-09T13:21:45.972Z,46.52
2022-09-09T13:24:30.635Z,47.80
2022-09-09T13:27:01.628Z,48.30
2022-09-09T13:29:30.667Z,48.46
2022-09-09T13:32:08.960Z,49.01
2022-09-09T13:34:37.970Z,49.36
2022-09-09T13:37:08.083Z,48.94
2022-09-09T13:39:38.254Z,49.07
2022-09-09T13:42:08.146Z,49.20
2022-09-09T13:44:40.220Z,49.84
2022-09-09T13:47:21.307Z,50.19
2022-09-09T13:49:49.838Z,49.47
2022-09-09T13:52:20.229Z,49.94
2022-09-09T13:54:51.084Z,48.79
2022-09-09T13:57:21.512Z,48.46
2022-09-09T14:00:06.509Z,48.44
2022-09-09T14:02:36.814Z,48.72
2022-09-09T14:05:05.840Z,48.84
2022-09-09T14:07:34.437Z,48.45
2022-09-09T14:10:02.948Z,49.03
2022-09-09T14:12:32.474Z,49.81
2022-09-09T14:15:01.631Z,50.36
2022-09-09T14:17:32.394Z,50.21
2022-09-09T14:20:02.189Z,50.84
2022-09-09T14:22:31.617Z,50.77
2022-09-09T14:24:59.990Z,50.97
2022-09-09T14:27:28.725Z,51.30
2022-09-09T14:29:57.484Z,51.41
2022-09-09T14:32:26.558Z,51.06
2022-09-09T14:34:55.496Z,50.32
2022-09-09T14:37:25.519Z,50.43
2022-09-09T14:39:56.992Z,51.19
2022-09-09T14:42:31.636Z,50.78
2022-09-09T14:45:00.124Z,50.74
2022-09-09T14:47:28.496Z,51.30
2022-09-09T14:49:58.380Z,50.96
2022-09-09T14:52:29.314Z,50.35
2022-09-09T14:54:58.093Z,50.72
2022-09-09T14:57:30.332Z,51.38
2022-09-09T15:00:01.875Z,50.83
2022-09-09T15:02:32.553Z,51.79
2022-09-09T15:05:02.290Z,51.38
2022-09-09T15:07:34.591Z,51.66
2022-09-09T15:10:05.659Z,52.27
2022-09-09T15:12:35.411Z,51.75
2022-09-09T15:15:14.195Z,52.40
2022-09-09T15:17:42.714Z,51.76
2022-09-09T15:20:13.039Z,52.39
2022-09-09T15:22:46.475Z,52.48
2022-09-09T15:25:15.886Z,52.08
2022-09-09T15:27:45.512Z,53.00
2022-09-09T15:30:14.498Z,52.67
2022-09-09T15:32:46.381Z,52.00
2022-09-09T15:35:15.082Z,53.04
2022-09-09T15:37:46.165Z,52.28
2022-09-09T15:40:15.338Z,52.27
2022-09-09T15:42:45.056Z,51.55
2022-09-09T15:45:14.854Z,51.13
2022-09-09T15:47:44.338Z,51.72
2022-09-09T15:50:14.227Z,51.84
2022-09-09T15:52:46.573Z,52.28
2022-09-09T15:55:17.610Z,52.79
2022-09-09T15:57:46.215Z,54.11
2022-09-09T16:00:18.474Z,54.36
2022-09-09T16:02:48.100Z,54.74
2022-09-09T16:05:16.676Z,55.29
2022-09-09T16:07:47.000Z,56.06
2022-09-09T16:10:15.474Z,55.21
2022-09-09T16:12:44.449Z,55.45
2022-09-09T16:15:14.275Z,55.49
2022-09-09T16:17:43.527Z,55.30
2022-09-09T16:20:13.185Z,56.45
2022-09-09T16:22:41.743Z,55.33
2022-09-09T16:25:12.638Z,54.75
2022-09-09T16:27:46.944Z,55.18
2022-09-09T16:30:16.924Z,54.68
2022-09-09T16:32:45.993Z,55.70
2022-09-09T16:35:14.323Z,55.83
2022-09-09T16:37:44.124Z,55.61
2022-09-09T16:40:13.968Z,54.85
2022-09-09T16:42:43.201Z,55.25
2022-09-09T16:45:12.117Z,54.81
2022-09-09T16:47:40.554Z,55.30
2022-09-09T16:50:09.821Z,54.53
2022-09-09T16:52:38.284Z,54.86
2022-09-09T16:55:07.256Z,55.05
2022-09-09T16:57:37.289Z,54.94
2022-09-09T17:00:08.262Z,54.99
2022-09-09T17:02:37.255Z,55.29
2022-09-09T17:05:06.459Z,54.41
2022-09-09T17:07:35.011Z,55.47
2022-09-09T17:10:03.662Z,54.97
2022-09-09T17:12:32.082Z,54.75
2022-09-09T17:15:04.227Z,54.75
2022-09-09T17:17:33.614Z,54.61
2022-09-09T17:20:04.191Z,55.20
2022-09-09T17:22:33.885Z,55.17
2022-09-09T17:25:02.530Z,54.85
2022-09-09T17:27:35.689Z,55.09
2022-09-09T17:30:07.334Z,55.95
2022-09-09T17:32:45.811Z,56.14
2022-09-09T17:35:14.199Z,56.27
2022-09-09T17:37:43.869Z,57.27
2022-09-09T17:40:13.085Z,57.45
2022-09-09T17:42:42.346Z,58.75
2022-09-09T17:45:16.671Z,58.70
2022-09-09T17:47:45.784Z,59.74
2022-09-09T17:50:15.048Z,59.93
2022-09-09T17:52:49.631Z,60.35
2022-09-09T17:55:18.273Z,59.90
2022-09-09T17:57:48.410Z,60.94
2022-09-09T18:00:19.085Z,60.90
2022-09-09T18:02:48.749Z,61.60
2022-09-09T18:05:19.284Z,63.65
2022-09-09T18:07:47.825Z,65.11
2022-09-09T18:10:16.730Z,64.34
2022-09-09T18:12:45.360Z,63.53
2022-09-09T18:15:24.160Z,63.18
2022-09-09T18:18:02.636Z,64.25
2022-09-09T18:20:31.116Z,64.48
2022-09-09T18:22:59.766Z,65.12
2022-09-09T18:25:30.098Z,63.70
2022-09-09T18:27:59.273Z,64.84
2022-09-09T18:30:28.361Z,64.70
2022-09-09T18:32:58.518Z,65.24
2022-09-09T18:35:28.326Z,65.67
2022-09-09T18:37:56.931Z,64.29
2022-09-09T18:40:26.177Z,64.86
2022-09-09T18:42:54.726Z,66.62
2022-09-09T18:45:24.155Z,67.40
2022-09-09T18:47:52.676Z,68.43
2022-09-09T18:50:22.582Z,68.75
2022-09-09T18:52:52.032Z,70.48
2022-09-09T18:55:24.574Z,70.69
2022-09-09T18:58:02.079Z,71.17
2022-09-09T19:00:31.504Z,71.58
2022-09-09T19:03:04.303Z,72.18
2022-09-09T19:05:43.577Z,72.09
2022-09-09T19:08:22.098Z,72.95
2022-09-09T19:11:03.690Z,73.52
2022-09-09T19:13:44.796Z,72.88
2022-09-09T19:16:19.692Z,73.32
2022-09-09T19:18:53.048Z,73.81
2022-09-09T19:21:30.159Z,74.25
2022-09-09T19:24:30.490Z,73.83
2022-09-09T19:27:24.786Z,74.42
2022-09-09T19:29:58.722Z,74.06
2022-09-09T19:38:09.408Z,75.36
2022-09-09T19:40:38.236Z,75.09
2022-09-09T19:43:07.522Z,75.80
2022-09-09T19:45:38.452Z,75.39
2022-09-09T19:48:07.251Z,76.29
2022-09-09T19:50:37.193Z,76.38
2022-09-09T19:53:08.263Z,75.82
2022-09-09T19:55:40.861Z,76.54
2022-09-09T19:58:09.918Z,77.26
2022-09-09T20:00:39.869Z,77.53
2022-09-09T20:03:19.288Z,77.40
2022-09-09T20:05:50.947Z,77.82
2022-09-09T20:08:23.558Z,77.42
2022-09-09T20:10:54.585Z,78.05
2022-09-09T20:13:28.297Z,78.13
2022-09-09T20:16:02.855Z,77.98
2022-09-09T20:18:33.053Z,78.31
2022-09-09T20:21:03.185Z,78.53
2022-09-09T20:23:33.879Z,78.37
2022-09-09T20:26:05.592Z,78.53
2022-09-09T20:28:35.857Z,78.96
2022-09-09T20:31:09.960Z,79.91
2022-09-09T20:33:40.595Z,79.49
2022-09-09T20:36:13.192Z,79.28
2022-09-09T20:38:48.370Z,79.63
2022-09-09T20:41:21.876Z,79.92
2022-09-09T20:43:52.476Z,79.96
2022-09-09T20:46:24.195Z,80.06
2022-09-09T20:48:58.580Z,79.94
2022-09-09T20:51:33.306Z,80.51
2022-09-09T20:54:05.130Z,81.48
2022-09-09T20:56:37.696Z,81.21
2022-09-09T20:59:06.846Z,80.94
2022-09-09T21:01:35.542Z,79.58
2022-09-09T21:04:04.900Z,79.42
2022-09-09T21:06:33.601Z,79.07
2022-09-09T21:09:04.796Z,79.42
2022-09-09T21:11:35.156Z,78.94
2022-09-09T21:14:03.836Z,79.10
2022-09-09T21:16:32.332Z,78.93
2022-09-09T21:19:03.442Z,78.78
2022-09-09T21:21:31.920Z,79.32
2022-09-09T21:24:01.601Z,79.14
2022-09-09T21:26:31.525Z,79.46
2022-09-09T21:28:59.984Z,79.24
2022-09-09T21:31:28.815Z,79.60
2022-09-09T21:33:57.638Z,79.21
2022-09-09T21:36:28.632Z,80.09
2022-09-09T21:38:59.338Z,79.99
2022-09-09T21:41:27.889Z,79.87
2022-09-09T21:43:57.809Z,80.12
2022-09-09T21:46:28.994Z,80.32
2022-09-09T21:48:58.681Z,80.68
2022-09-09T21:51:27.119Z,80.35
2022-09-09T21:53:57.058Z,80.57
2022-09-09T21:56:26.895Z,81.04
2022-09-09T21:59:03.985Z,80.54
2022-09-09T22:01:33.723Z,80.61
2022-09-09T22:04:04.136Z,81.29
2022-09-09T22:06:32.541Z,81.60
2022-09-09T22:09:02.343Z,81.66
2022-09-09T22:11:31.705Z,81.49
2022-09-09T22:14:02.859Z,82.03
2022-09-09T22:16:31.909Z,81.87
2022-09-09T22:19:02.705Z,82.88
2022-09-09T22:21:32.321Z,82.26
2022-09-09T22:24:02.613Z,83.13
2022-09-09T22:26:33.177Z,82.63
2022-09-09T22:29:04.173Z,83.01
2022-09-09T22:31:36.182Z,83.92
2022-09-09T22:34:05.626Z,84.10
2022-09-09T22:36:34.456Z,83.85
2022-09-09T22:39:02.974Z,83.33
2022-09-09T22:41:32.197Z,84.34
2022-09-09T22:44:00.734Z,84.39
2022-09-09T22:46:33.151Z,84.95
2022-09-09T22:49:03.371Z,84.71
2022-09-09T22:51:34.426Z,84.63
2022-09-09T22:54:02.936Z,84.89
2022-09-09T22:56:31.345Z,85.32
2022-09-09T22:58:59.842Z,84.70
2022-09-09T23:01:30.822Z,85.36
2022-09-09T23:04:02.825Z,85.28
2022-09-09T23:06:31.862Z,85.52
2022-09-09T23:09:01.585Z,85.45
2022-09-09T23:11:31.920Z,85.30
2022-09-09T23:14:01.788Z,85.31
2022-09-09T23:16:33.981Z,85.73
2022-09-09T23:19:02.737Z,86.02
2022-09-09T23:21:32.116Z,86.11
2022-09-09T23:24:01.141Z,86.12
2022-09-09T23:26:30.065Z,85.56
2022-09-09T23:28:59.624Z,86.05
2022-09-09T23:31:29.948Z,86.10
2022-09-09T23:34:01.050Z,86.65
2022-09-09T23:36:31.057Z,86.08
2022-09-09T23:39:00.441Z,86.28
2022-09-09T23:41:28.886Z,86.65
2022-09-09T23:43:57.824Z,86.56
2022-09-09T23:46:28.756Z,86.72
2022-09-09T23:48:59.413Z,86.63
2022-09-09T23:51:30.781Z,86.60
2022-09-09T23:54:00.593Z,87.20
2022-09-09T23:56:31.711Z,87.09
2022-09-09T23:59:00.669Z,86.91
